Levante — 9HOB7 — position and weather

sailwx.info

Track history (hours):
 
Tides and Currents Weather Stations Pressure Air Temp Water Temp Dewpoint Dewpoint Depression Visibility Wind Speed Wind Dir Waves Ship Positions

Levante

Last reported at 2016-Nov-28 16:12 UTC. Time now 2016-Dec-09 11:37 UTC.
Position N 37°04' E 123°01'.
Warning: this ship's position is 10 days out of date.

Length 188.3 m; beam 28 m; draft 10.1 m.

Type: Ship. MMSI: 215440000.

Date/timePositionNaut miles runAvg speedWind from/ knotsBaromVisibWave heightAir tempDewpointWater temp
2016-Nov-28 16:12N 37°04' E 123°01'913.2
2016-Nov-28 15:33N 37°13' E 122°57'9411.7
2016-Nov-28 07:30N 38°37' E 122°04'13 0.8
2016-Nov-27 15:21N 38°47' E 121°54'910.2
2016-Nov-27 14:29N 38°40' E 121°47'1210.0
2016-Nov-27 13:20N 38°32' E 121°37'1110.5
2016-Nov-27 12:19N 38°30' E 121°24'1311.0
2016-Nov-27 11:08N 38°29' E 121°07'712.0
2016-Nov-27 10:33N 38°31' E 120°58'1111.6
2016-Nov-27 09:34N 38°41' E 120°51'  
2016-Nov-22 14:25N 38°35' E 120°59'1011.0
2016-Nov-22 13:33N 38°30' E 121°10'  
Track history (hours):
 
Tides and Currents Weather Stations Pressure Air Temp Water Temp Dewpoint Dewpoint Depression Visibility Wind Speed Wind Dir Waves Ship Positions

Levante

Last reported at 2016-Nov-28 16:12 UTC. Time now 2016-Dec-09 11:37 UTC.
Position N 37°04' E 123°01'.
Warning: this ship's position is 10 days out of date.

Length 188.3 m; beam 28 m; draft 10.1 m.

Type: Ship. MMSI: 215440000.

Date/timePositionNaut miles runAvg speedWind from/ knotsBaromVisibWave heightAir tempDewpointWater temp
2016-Nov-28 16:12N 37°04' E 123°01'913.2
2016-Nov-28 15:33N 37°13' E 122°57'9411.7
2016-Nov-28 07:30N 38°37' E 122°04'13 0.8
2016-Nov-27 15:21N 38°47' E 121°54'910.2
2016-Nov-27 14:29N 38°40' E 121°47'1210.0
2016-Nov-27 13:20N 38°32' E 121°37'1110.5
2016-Nov-27 12:19N 38°30' E 121°24'1311.0
2016-Nov-27 11:08N 38°29' E 121°07'712.0
2016-Nov-27 10:33N 38°31' E 120°58'1111.6
2016-Nov-27 09:34N 38°41' E 120°51'  
2016-Nov-22 14:25N 38°35' E 120°59'1011.0
2016-Nov-22 13:33N 38°30' E 121°10'  

Dump ship's entire track history